Time;durP1;ratioP1;P1;durP2;ratioP2;P2;SDS_P1;SDS_P2;PMS_P1;PMS_P2;Temp;Humidity;BMP_temperature;BMP_pressure;BME280_temperature;BME280_humidity;BME280_pressure;Samples;Min_cycle;Max_cycle;Signal;HPM_P1;HPM_P2
2021/11/08 00:00:05;;;;;;;;;50.50;42.50;;;;;;;;5113687;27;49750;-69
2021/11/08 00:02:30;;;;;;;;;54.25;44.25;;;;;;;;5113665;27;49885;-74
2021/11/08 00:04:56;;;;;;;;;51.75;42.25;;;;;;;;5095350;27;49756;-71
2021/11/08 00:07:21;;;;;;;;;53.50;43.00;;;;;;;;5111802;27;51290;-68
2021/11/08 00:09:46;;;;;;;;;45.50;39.50;;;;;;;;5113580;27;50214;-74
2021/11/08 00:12:12;;;;;;;;;54.75;43.50;;;;;;;;5113616;27;49571;-66
2021/11/08 00:14:38;;;;;;;;;55.50;45.25;;;;;;;;5113810;27;49746;-69
2021/11/08 00:17:16;;;;;;;;;47.25;41.75;;;;;;;;5113061;27;50271;-71
2021/11/08 00:19:55;;;;;;;;;53.00;42.75;;;;;;;;5113313;27;49845;-68
2021/11/08 00:22:21;;;;;;;;;49.25;42.75;;;;;;;;5113368;27;49606;-68
2021/11/08 00:24:48;;;;;;;;;54.50;42.50;;;;;;;;5112193;27;49830;-68
2021/11/08 00:27:14;;;;;;;;;50.00;43.00;;;;;;;;5113312;27;50350;-67
2021/11/08 00:29:39;;;;;;;;;57.25;43.00;;;;;;;;5111638;27;50104;-67
2021/11/08 00:32:05;;;;;;;;;46.50;40.50;;;;;;;;5113335;27;49836;-67
2021/11/08 00:34:30;;;;;;;;;44.75;37.75;;;;;;;;5113264;27;49601;-67
2021/11/08 00:36:56;;;;;;;;;43.00;37.25;;;;;;;;5112788;27;50153;-67
2021/11/08 00:39:23;;;;;;;;;42.25;38.00;;;;;;;;5111815;27;49728;-67
2021/11/08 00:41:48;;;;;;;;;40.75;36.25;;;;;;;;5113274;27;50083;-66
2021/11/08 00:44:13;;;;;;;;;42.00;37.25;;;;;;;;5113283;27;49962;-66
2021/11/08 00:46:38;;;;;;;;;44.00;38.75;;;;;;;;5112886;27;49839;-66
2021/11/08 00:49:04;;;;;;;;;42.75;38.25;;;;;;;;5112878;27;49646;-66
2021/11/08 00:51:29;;;;;;;;;42.25;38.75;;;;;;;;5112913;27;49720;-67
2021/11/08 00:53:54;;;;;;;;;35.50;34.00;;;;;;;;5113301;27;49699;-67
2021/11/08 00:56:22;;;;;;;;;37.00;33.25;;;;;;;;5112932;27;49709;-67
2021/11/08 00:58:48;;;;;;;;;36.50;31.50;;;;;;;;5111380;27;50147;-66
2021/11/08 01:01:18;;;;;;;;;36.75;36.25;;;;;;;;5113322;27;49715;-66
2021/11/08 01:03:44;;;;;;;;;42.50;39.25;;;;;;;;5112997;27;49679;-73
2021/11/08 01:06:10;;;;;;;;;39.25;34.25;;;;;;;;5112167;27;50518;-71
2021/11/08 01:08:36;;;;;;;;;38.25;35.00;;;;;;;;5111308;27;49690;-67
2021/11/08 01:11:01;;;;;;;;;40.50;37.00;;;;;;;;5112806;27;49696;-74
2021/11/08 01:13:26;;;;;;;;;36.75;36.00;;;;;;;;5112744;27;49670;-66
2021/11/08 01:15:52;;;;;;;;;39.75;32.75;;;;;;;;5112384;27;49725;-73
2021/11/08 01:18:18;;;;;;;;;41.75;35.25;;;;;;;;5111303;27;49961;-67
2021/11/08 01:20:47;;;;;;;;;35.75;34.25;;;;;;;;5110771;27;50226;-68
2021/11/08 01:23:13;;;;;;;;;37.25;32.75;;;;;;;;5112664;27;49894;-74
2021/11/08 01:25:38;;;;;;;;;42.25;36.25;;;;;;;;5110737;27;51584;-72
2021/11/08 01:28:05;;;;;;;;;35.00;32.75;;;;;;;;5111922;27;49727;-67
2021/11/08 01:30:30;;;;;;;;;32.00;32.00;;;;;;;;5093726;27;49853;-70
2021/11/08 01:33:02;;;;;;;;;35.50;33.50;;;;;;;;5112574;27;49642;-68
2021/11/08 01:35:31;;;;;;;;;29.50;28.00;;;;;;;;5110850;27;50634;-71
2021/11/08 01:38:07;;;;;;;;;33.00;31.75;;;;;;;;5112113;27;49788;-71
2021/11/08 01:40:32;;;;;;;;;30.00;27.00;;;;;;;;5112179;27;49762;-66
2021/11/08 01:42:57;;;;;;;;;37.50;34.50;;;;;;;;5111049;27;49644;-69
2021/11/08 01:45:23;;;;;;;;;34.50;33.75;;;;;;;;5111891;27;51096;-72
2021/11/08 01:47:48;;;;;;;;;27.50;26.25;;;;;;;;5111627;27;62475;-67
2021/11/08 01:50:13;;;;;;;;;26.50;25.00;;;;;;;;5111713;27;60779;-74
2021/11/08 01:52:38;;;;;;;;;41.50;32.75;;;;;;;;5111956;27;49544;-69
2021/11/08 01:55:04;;;;;;;;;33.25;29.75;;;;;;;;5111751;27;55321;-68
2021/11/08 01:57:29;;;;;;;;;30.00;28.75;;;;;;;;5111401;27;49761;-70
2021/11/08 01:59:54;;;;;;;;;33.50;28.75;;;;;;;;5110029;27;56705;-70
2021/11/08 02:02:20;;;;;;;;;31.25;26.00;;;;;;;;5112136;27;49733;-75
2021/11/08 02:04:45;;;;;;;;;33.00;29.75;;;;;;;;5111695;27;51371;-71
2021/11/08 02:07:11;;;;;;;;;29.75;29.00;;;;;;;;5111726;27;49871;-68
2021/11/08 02:09:36;;;;;;;;;27.75;25.50;;;;;;;;5111913;27;49636;-71
2021/11/08 02:12:02;;;;;;;;;33.50;24.25;;;;;;;;5111954;27;49781;-67
2021/11/08 02:14:28;;;;;;;;;28.50;27.25;;;;;;;;5110306;27;49932;-74
2021/11/08 02:16:53;;;;;;;;;35.25;29.25;;;;;;;;5111717;27;49817;-72
2021/11/08 02:19:18;;;;;;;;;27.25;27.25;;;;;;;;5110082;27;49945;-74
2021/11/08 02:21:43;;;;;;;;;28.50;28.50;;;;;;;;5111578;27;49662;-74
2021/11/08 02:24:14;;;;;;;;;29.25;22.75;;;;;;;;5111418;27;50849;-69
2021/11/08 02:26:41;;;;;;;;;31.50;28.00;;;;;;;;5111612;27;49864;-68
2021/11/08 02:29:06;;;;;;;;;23.00;23.00;;;;;;;;5110337;27;49720;-75
2021/11/08 02:31:34;;;;;;;;;24.25;22.50;;;;;;;;5111741;27;49878;-68
2021/11/08 02:34:00;;;;;;;;;27.50;27.00;;;;;;;;5111217;27;50003;-70
2021/11/08 02:36:25;;;;;;;;;27.00;23.50;;;;;;;;5109741;27;49677;-74
2021/11/08 02:38:53;;;;;;;;;27.25;23.00;;;;;;;;5110161;27;49653;-72
2021/11/08 02:41:18;;;;;;;;;33.75;31.00;;;;;;;;5113112;27;49893;-69
2021/11/08 02:43:44;;;;;;;;;34.25;27.50;;;;;;;;5113555;27;50472;-66
2021/11/08 02:46:13;;;;;;;;;29.00;26.50;;;;;;;;5115053;27;49714;-66
2021/11/08 02:48:38;;;;;;;;;41.25;34.00;;;;;;;;5115018;27;50045;-67
2021/11/08 02:51:08;;;;;;;;;28.00;22.75;;;;;;;;5114833;27;49886;-66
2021/11/08 02:53:35;;;;;;;;;35.25;27.50;;;;;;;;5113450;27;50576;-70
2021/11/08 02:56:00;;;;;;;;;25.75;24.25;;;;;;;;5114836;27;49901;-66
2021/11/08 02:58:28;;;;;;;;;29.50;26.00;;;;;;;;5114680;27;49582;-73
2021/11/08 03:00:54;;;;;;;;;21.50;20.75;;;;;;;;5115006;27;49812;-72
2021/11/08 03:03:22;;;;;;;;;26.50;26.25;;;;;;;;5114687;27;49716;-65
2021/11/08 03:05:47;;;;;;;;;29.50;22.00;;;;;;;;5113154;27;50175;-67
2021/11/08 03:08:13;;;;;;;;;30.00;28.25;;;;;;;;5114786;27;49578;-65
2021/11/08 03:10:38;;;;;;;;;22.50;22.50;;;;;;;;5114638;27;49781;-65
2021/11/08 03:13:14;;;;;;;;;24.00;22.75;;;;;;;;5113070;27;50794;-65
2021/11/08 03:18:14;;;;;;;;;30.50;25.50;;;;;;;;5116492;27;49831;-65
2021/11/08 03:20:39;;;;;;;;;31.25;24.00;;;;;;;;5114290;27;49973;-65
2021/11/08 03:23:07;;;;;;;;;26.50;24.00;;;;;;;;5114259;27;49716;-65
2021/11/08 03:27:58;;;;;;;;;28.75;22.00;;;;;;;;5113045;27;49985;-65
2021/11/08 03:30:26;;;;;;;;;21.75;20.75;;;;;;;;5112966;27;49987;-66
2021/11/08 03:32:52;;;;;;;;;24.50;23.00;;;;;;;;5112713;27;50601;-65
2021/11/08 03:35:22;;;;;;;;;29.25;25.00;;;;;;;;5114046;27;49734;-65
2021/11/08 03:37:48;;;;;;;;;29.50;23.75;;;;;;;;5114295;27;49968;-65
2021/11/08 03:40:14;;;;;;;;;29.00;24.75;;;;;;;;5114274;27;49724;-65
2021/11/08 03:42:40;;;;;;;;;29.75;26.00;;;;;;;;5112556;27;50655;-65
2021/11/08 03:45:05;;;;;;;;;34.75;28.75;;;;;;;;5114052;27;49753;-65
2021/11/08 03:47:30;;;;;;;;;34.00;32.75;;;;;;;;5113949;27;50189;-65
2021/11/08 03:49:55;;;;;;;;;35.75;28.00;;;;;;;;5112786;27;49701;-65
2021/11/08 03:52:21;;;;;;;;;29.25;26.75;;;;;;;;5112962;27;50217;-65
2021/11/08 03:54:46;;;;;;;;;25.25;21.75;;;;;;;;5113924;27;49659;-65
2021/11/08 03:57:12;;;;;;;;;23.75;20.25;;;;;;;;5112798;27;49765;-65
2021/11/08 03:59:37;;;;;;;;;33.50;29.50;;;;;;;;5095424;27;49818;-65
2021/11/08 04:02:02;;;;;;;;;26.00;23.50;;;;;;;;5113320;27;63020;-65
2021/11/08 04:04:28;;;;;;;;;28.00;24.75;;;;;;;;5113754;27;49852;-65
2021/11/08 04:06:54;;;;;;;;;25.50;24.75;;;;;;;;5113484;27;49740;-65
2021/11/08 04:09:20;;;;;;;;;26.50;25.00;;;;;;;;5112543;27;49804;-65
2021/11/08 04:11:45;;;;;;;;;31.00;27.75;;;;;;;;5113476;27;49844;-65
2021/11/08 04:14:11;;;;;;;;;29.75;28.75;;;;;;;;5113721;27;49823;-65
2021/11/08 04:16:36;;;;;;;;;27.25;25.00;;;;;;;;5112367;27;49628;-66
2021/11/08 04:19:02;;;;;;;;;30.75;26.50;;;;;;;;5113338;27;49841;-65
2021/11/08 04:21:27;;;;;;;;;28.75;26.25;;;;;;;;5113181;27;50137;-65
2021/11/08 04:23:52;;;;;;;;;25.75;25.50;;;;;;;;5112156;27;49705;-65
2021/11/08 04:26:19;;;;;;;;;23.00;21.75;;;;;;;;5113449;27;49552;-67
2021/11/08 04:28:52;;;;;;;;;30.50;26.00;;;;;;;;5113478;27;49925;-66
2021/11/08 04:31:17;;;;;;;;;26.25;25.00;;;;;;;;5111868;27;51679;-65
2021/11/08 04:33:49;;;;;;;;;29.75;29.25;;;;;;;;5113299;27;49699;-65
2021/11/08 05:21:59;;;;;;;;;31.25;25.00;;;;;;;;5112667;27;49726;-65
2021/11/08 05:30:05;;;;;;;;;33.25;31.25;;;;;;;;5111331;27;49742;-66
2021/11/08 05:32:31;;;;;;;;;27.50;22.00;;;;;;;;5112405;27;49686;-68
2021/11/08 05:34:57;;;;;;;;;30.25;28.00;;;;;;;;5112073;27;50088;-69
2021/11/08 05:37:23;;;;;;;;;33.75;30.00;;;;;;;;5110669;27;49743;-70
2021/11/08 05:39:50;;;;;;;;;27.50;27.00;;;;;;;;5112151;27;49614;-71
2021/11/08 05:42:16;;;;;;;;;26.25;22.50;;;;;;;;5111007;27;50015;-71
2021/11/08 05:44:41;;;;;;;;;33.50;28.50;;;;;;;;5096091;27;51269;-72
2021/11/08 05:47:06;;;;;;;;;28.25;26.25;;;;;;;;5115234;27;49575;-65
2021/11/08 05:49:31;;;;;;;;;29.25;25.75;;;;;;;;5115391;27;49750;-66
2021/11/08 05:51:57;;;;;;;;;26.00;20.75;;;;;;;;5110142;27;49608;-63
2021/11/08 05:54:22;;;;;;;;;29.75;28.00;;;;;;;;5110498;27;50434;-66
2021/11/08 05:57:08;;;;;;;;;31.50;27.25;;;;;;;;5110647;27;49647;-66
2021/11/08 06:49:13;;;;;;;;;22.75;22.50;;;;;;;;5088487;27;50115;-66
2021/11/08 06:51:39;;;;;;;;;23.75;22.50;;;;;;;;5091482;27;49597;-66
2021/11/08 06:54:04;;;;;;;;;27.75;26.50;;;;;;;;5090380;27;49967;-64
2021/11/08 06:56:35;;;;;;;;;20.75;19.25;;;;;;;;5088491;27;49624;-65
2021/11/08 06:59:03;;;;;;;;;20.50;16.75;;;;;;;;5088038;27;50490;-65
2021/11/08 07:01:28;;;;;;;;;28.00;23.75;;;;;;;;5102420;27;49533;-62
2021/11/08 07:03:54;;;;;;;;;24.00;22.00;;;;;;;;5103685;27;49744;-64
2021/11/08 07:06:19;;;;;;;;;23.75;23.25;;;;;;;;5101877;27;49539;-64
2021/11/08 07:08:44;;;;;;;;;22.00;20.50;;;;;;;;5099524;27;49299;-64
2021/11/08 07:11:09;;;;;;;;;27.75;23.50;;;;;;;;5093953;27;50471;-64
2021/11/08 07:13:34;;;;;;;;;32.00;25.75;;;;;;;;5102216;27;49222;-73
2021/11/08 07:15:59;;;;;;;;;29.50;24.75;;;;;;;;5089371;27;57389;-69
2021/11/08 07:18:25;;;;;;;;;35.75;27.50;;;;;;;;5098979;27;53530;-62
2021/11/08 07:20:50;;;;;;;;;30.75;27.50;;;;;;;;5101758;27;49788;-65
2021/11/08 07:23:15;;;;;;;;;28.50;21.75;;;;;;;;5077536;27;49848;-66
2021/11/08 07:25:41;;;;;;;;;25.25;22.75;;;;;;;;5087897;27;49596;-71
2021/11/08 07:28:10;;;;;;;;;30.25;27.25;;;;;;;;5087607;27;49908;-68
2021/11/08 07:30:35;;;;;;;;;36.25;24.75;;;;;;;;5090688;27;49847;-69
2021/11/08 07:33:01;;;;;;;;;32.00;29.00;;;;;;;;5093520;27;49643;-67
2021/11/08 07:35:26;;;;;;;;;33.75;30.25;;;;;;;;5091657;27;50072;-71
2021/11/08 07:37:51;;;;;;;;;44.50;36.25;;;;;;;;5092817;27;63666;-70
2021/11/08 07:40:16;;;;;;;;;34.00;32.50;;;;;;;;5092731;27;58239;-68
2021/11/08 07:42:42;;;;;;;;;39.00;34.25;;;;;;;;5093463;27;49647;-67
2021/11/08 07:45:07;;;;;;;;;37.75;31.50;;;;;;;;5093726;27;49641;-68
2021/11/08 07:47:33;;;;;;;;;34.50;31.50;;;;;;;;5092011;27;50664;-72
2021/11/08 07:49:58;;;;;;;;;33.50;32.00;;;;;;;;5091481;27;64920;-65
2021/11/08 07:52:23;;;;;;;;;33.00;30.50;;;;;;;;5093172;27;52830;-66
2021/11/08 07:54:48;;;;;;;;;38.00;34.75;;;;;;;;5093211;27;49810;-69
2021/11/08 07:57:13;;;;;;;;;38.75;36.00;;;;;;;;5100968;27;50304;-63
2021/11/08 07:59:38;;;;;;;;;33.75;33.75;;;;;;;;5094346;27;49873;-63
2021/11/08 08:02:04;;;;;;;;;48.00;37.00;;;;;;;;5093006;27;49837;-64
2021/11/08 08:04:29;;;;;;;;;33.00;28.25;;;;;;;;5092993;27;49607;-70
2021/11/08 08:06:54;;;;;;;;;33.75;31.25;;;;;;;;5092693;27;50274;-66
2021/11/08 08:09:20;;;;;;;;;34.25;29.00;;;;;;;;5091205;27;49612;-64
2021/11/08 08:11:45;;;;;;;;;29.75;25.50;;;;;;;;5091469;27;50089;-63
2021/11/08 08:14:10;;;;;;;;;37.50;33.75;;;;;;;;5091482;27;49789;-64
2021/11/08 08:16:35;;;;;;;;;27.75;26.00;;;;;;;;5090001;27;50512;-68
2021/11/08 08:19:01;;;;;;;;;23.75;22.00;;;;;;;;5091029;27;49840;-63
2021/11/08 08:21:26;;;;;;;;;23.75;22.25;;;;;;;;5091371;27;49754;-63
2021/11/08 08:23:54;;;;;;;;;29.50;24.00;;;;;;;;5091066;27;49657;-67
2021/11/08 08:26:19;;;;;;;;;32.50;28.00;;;;;;;;5092754;27;50394;-63
2021/11/08 08:28:45;;;;;;;;;29.00;26.50;;;;;;;;5091446;27;49734;-62
2021/11/08 08:31:10;;;;;;;;;28.00;25.00;;;;;;;;5092810;27;49701;-63
2021/11/08 08:33:37;;;;;;;;;28.25;26.75;;;;;;;;5092778;27;49787;-63
2021/11/08 08:36:02;;;;;;;;;30.75;23.75;;;;;;;;5092198;27;49948;-64
2021/11/08 08:38:27;;;;;;;;;33.75;31.00;;;;;;;;5091338;27;49767;-62
2021/11/08 08:40:55;;;;;;;;;31.75;27.00;;;;;;;;5092386;27;52145;-64
2021/11/08 08:43:20;;;;;;;;;27.75;24.25;;;;;;;;5092919;27;49680;-62
2021/11/08 08:45:45;;;;;;;;;27.75;25.00;;;;;;;;5092266;27;49666;-62
2021/11/08 08:48:13;;;;;;;;;31.50;27.25;;;;;;;;5092351;27;49758;-62
2021/11/08 08:50:39;;;;;;;;;26.25;25.75;;;;;;;;5092607;27;50008;-64
2021/11/08 08:53:04;;;;;;;;;24.75;23.25;;;;;;;;5091262;27;49655;-63
2021/11/08 08:55:29;;;;;;;;;26.50;25.50;;;;;;;;5092100;27;50361;-63
2021/11/08 08:57:55;;;;;;;;;29.25;27.25;;;;;;;;5092494;27;49754;-63
2021/11/08 09:00:21;;;;;;;;;32.00;27.50;;;;;;;;5092232;27;49671;-63
2021/11/08 09:02:47;;;;;;;;;32.50;28.00;;;;;;;;5091186;27;50138;-62
2021/11/08 09:05:12;;;;;;;;;30.00;25.75;;;;;;;;5092211;27;50656;-62
2021/11/08 09:07:37;;;;;;;;;28.00;25.50;;;;;;;;5092028;27;49781;-63
2021/11/08 09:10:03;;;;;;;;;30.75;26.25;;;;;;;;5092050;27;54501;-62
2021/11/08 09:12:28;;;;;;;;;26.25;25.00;;;;;;;;5092416;27;49953;-62
2021/11/08 09:14:53;;;;;;;;;36.00;30.75;;;;;;;;5090834;27;49648;-62
2021/11/08 09:17:18;;;;;;;;;36.50;31.00;;;;;;;;5091991;27;49616;-62
2021/11/08 09:19:44;;;;;;;;;28.75;26.75;;;;;;;;5092014;27;49510;-62
2021/11/08 09:22:12;;;;;;;;;34.25;29.00;;;;;;;;5091632;27;49759;-62
2021/11/08 09:24:37;;;;;;;;;36.75;32.25;;;;;;;;5091940;27;50293;-63
2021/11/08 09:27:06;;;;;;;;;27.50;24.50;;;;;;;;5090571;27;49881;-63
2021/11/08 09:29:31;;;;;;;;;32.50;31.00;;;;;;;;5091946;27;49608;-63
2021/11/08 09:31:56;;;;;;;;;36.75;31.25;;;;;;;;5091964;27;49628;-62
2021/11/08 09:34:23;;;;;;;;;33.25;28.00;;;;;;;;5090323;27;50012;-62
2021/11/08 09:36:49;;;;;;;;;34.25;28.00;;;;;;;;5091593;27;49843;-62
2021/11/08 09:39:24;;;;;;;;;33.75;28.50;;;;;;;;5091846;27;49836;-62
2021/11/08 09:41:49;;;;;;;;;30.75;26.75;;;;;;;;5090892;27;49774;-63
2021/11/08 09:44:15;;;;;;;;;33.50;30.25;;;;;;;;5091631;27;49688;-62
2021/11/08 09:46:42;;;;;;;;;30.75;29.25;;;;;;;;5091561;27;49638;-64
2021/11/08 09:49:07;;;;;;;;;25.50;24.50;;;;;;;;5091245;27;49683;-67
2021/11/08 09:51:42;;;;;;;;;28.50;26.25;;;;;;;;5091253;27;49796;-63
2021/11/08 09:54:10;;;;;;;;;28.00;28.00;;;;;;;;5091424;27;50433;-69
2021/11/08 09:56:35;;;;;;;;;35.00;31.00;;;;;;;;5090157;27;49834;-69
2021/11/08 09:59:00;;;;;;;;;33.00;26.50;;;;;;;;5091472;27;49903;-68
2021/11/08 10:01:27;;;;;;;;;34.75;26.25;;;;;;;;5091218;27;49777;-64
2021/11/08 10:03:53;;;;;;;;;32.00;28.00;;;;;;;;5091029;27;50440;-66
2021/11/08 10:06:18;;;;;;;;;30.50;28.50;;;;;;;;5090840;27;49737;-68
2021/11/08 10:08:44;;;;;;;;;23.25;22.25;;;;;;;;5091184;27;49731;-67
2021/11/08 10:11:13;;;;;;;;;24.25;18.50;;;;;;;;5091646;27;50021;-66
2021/11/08 10:13:38;;;;;;;;;25.75;23.25;;;;;;;;5091078;27;49727;-67
2021/11/08 10:16:08;;;;;;;;;39.75;30.25;;;;;;;;5091159;27;49630;-63
2021/11/08 10:18:33;;;;;;;;;26.75;24.25;;;;;;;;5091238;27;49805;-69
2021/11/08 10:21:05;;;;;;;;;30.75;28.50;;;;;;;;5090785;27;49548;-67
2021/11/08 10:23:31;;;;;;;;;36.75;27.25;;;;;;;;5091028;27;49761;-69
2021/11/08 10:25:56;;;;;;;;;32.75;28.00;;;;;;;;5091024;27;49744;-63
2021/11/08 10:28:25;;;;;;;;;31.00;25.75;;;;;;;;5090746;27;59275;-69
2021/11/08 10:31:00;;;;;;;;;28.00;25.25;;;;;;;;5091301;27;49766;-63
2021/11/08 10:33:30;;;;;;;;;26.75;21.50;;;;;;;;5090941;27;49726;-63
2021/11/08 10:35:56;;;;;;;;;29.00;22.50;;;;;;;;5090675;27;49849;-64
2021/11/08 10:38:22;;;;;;;;;33.00;26.50;;;;;;;;5091106;27;49647;-64
2021/11/08 10:40:51;;;;;;;;;25.75;21.00;;;;;;;;5089729;27;49956;-68
2021/11/08 10:43:22;;;;;;;;;23.75;21.50;;;;;;;;5090681;27;50475;-63
2021/11/08 10:45:49;;;;;;;;;23.25;23.25;;;;;;;;5089495;27;49713;-70
2021/11/08 10:48:20;;;;;;;;;25.00;23.50;;;;;;;;5091099;27;49633;-70
2021/11/08 10:50:46;;;;;;;;;23.50;22.00;;;;;;;;5089526;27;49638;-62
2021/11/08 10:53:12;;;;;;;;;26.75;22.50;;;;;;;;5089227;27;51117;-69
2021/11/08 10:55:37;;;;;;;;;28.00;23.25;;;;;;;;5090532;27;49719;-70
2021/11/08 10:58:07;;;;;;;;;26.50;21.00;;;;;;;;5091227;27;49891;-70
2021/11/08 11:00:32;;;;;;;;;19.50;18.25;;;;;;;;5090854;27;49744;-64
2021/11/08 11:02:57;;;;;;;;;20.75;20.75;;;;;;;;5093372;27;49981;-63
2021/11/08 11:05:23;;;;;;;;;17.00;15.00;;;;;;;;5094053;27;49596;-67
2021/11/08 11:07:48;;;;;;;;;19.50;17.00;;;;;;;;5094206;27;49593;-64
2021/11/08 11:10:14;;;;;;;;;20.50;19.00;;;;;;;;5092716;27;49793;-63
2021/11/08 11:12:43;;;;;;;;;22.50;18.75;;;;;;;;5093779;27;52448;-63
2021/11/08 11:15:32;;;;;;;;;21.25;17.00;;;;;;;;5093892;27;49644;-62
2021/11/08 11:17:59;;;;;;;;;15.75;13.00;;;;;;;;5093991;27;49742;-63
2021/11/08 11:20:30;;;;;;;;;17.25;15.75;;;;;;;;5092311;27;49869;-64
2021/11/08 11:23:01;;;;;;;;;18.50;16.75;;;;;;;;5094137;27;50438;-63
2021/11/08 11:25:27;;;;;;;;;15.00;15.00;;;;;;;;5093918;27;49798;-63
2021/11/08 11:27:53;;;;;;;;;17.00;11.50;;;;;;;;5093980;27;49652;-62
2021/11/08 11:30:20;;;;;;;;;13.75;12.25;;;;;;;;5094041;27;49725;-62
2021/11/08 11:32:55;;;;;;;;;10.50;10.00;;;;;;;;5093540;27;50223;-62
2021/11/08 11:35:20;;;;;;;;;12.25;12.25;;;;;;;;5092933;27;49795;-62
2021/11/08 11:37:56;;;;;;;;;12.25;9.25;;;;;;;;5094153;27;49910;-63
2021/11/08 11:40:22;;;;;;;;;8.75;8.75;;;;;;;;5093784;27;49657;-62
2021/11/08 11:42:57;;;;;;;;;18.25;9.50;;;;;;;;5093422;27;50305;-62
2021/11/08 11:45:23;;;;;;;;;10.50;8.00;;;;;;;;5093628;27;49833;-62
2021/11/08 11:47:55;;;;;;;;;11.50;8.25;;;;;;;;5092061;27;49689;-63
2021/11/08 11:50:20;;;;;;;;;6.00;6.00;;;;;;;;5093410;27;49562;-62
2021/11/08 11:52:45;;;;;;;;;9.75;9.00;;;;;;;;5092012;27;51199;-62
2021/11/08 11:55:11;;;;;;;;;11.00;10.00;;;;;;;;5091571;27;62027;-63
2021/11/08 11:57:36;;;;;;;;;4.75;3.50;;;;;;;;5093333;27;49517;-63
2021/11/08 12:00:03;;;;;;;;;7.00;6.00;;;;;;;;5093129;27;55576;-63
2021/11/08 12:02:28;;;;;;;;;7.50;5.50;;;;;;;;5092938;27;52006;-62
2021/11/08 12:04:54;;;;;;;;;5.50;3.00;;;;;;;;5092526;27;59710;-63
2021/11/08 12:07:19;;;;;;;;;8.25;5.00;;;;;;;;5093350;27;49761;-63
2021/11/08 12:09:44;;;;;;;;;5.50;4.50;;;;;;;;5093203;27;54543;-63
2021/11/08 12:12:09;;;;;;;;;6.50;5.00;;;;;;;;5092601;27;57511;-62
2021/11/08 12:14:36;;;;;;;;;4.00;3.00;;;;;;;;5091478;27;49651;-63
2021/11/08 12:17:02;;;;;;;;;3.75;3.75;;;;;;;;5093195;27;49829;-62
2021/11/08 12:19:38;;;;;;;;;4.00;2.25;;;;;;;;5091575;27;49791;-63
2021/11/08 12:22:11;;;;;;;;;11.00;5.50;;;;;;;;5092866;27;50360;-64
2021/11/08 12:24:36;;;;;;;;;8.75;7.75;;;;;;;;5092989;27;49721;-63
2021/11/08 12:27:02;;;;;;;;;12.75;8.75;;;;;;;;5092829;27;49662;-63
2021/11/08 12:29:27;;;;;;;;;5.00;5.00;;;;;;;;5093491;27;49993;-63
2021/11/08 12:32:09;;;;;;;;;9.50;9.50;;;;;;;;5092834;27;50547;-63
2021/11/08 12:34:38;;;;;;;;;5.00;5.00;;;;;;;;5093013;27;49747;-63
2021/11/08 12:37:03;;;;;;;;;8.75;7.00;;;;;;;;5092750;27;49889;-63
2021/11/08 12:39:29;;;;;;;;;10.00;7.00;;;;;;;;5091378;27;50004;-63
2021/11/08 12:42:00;;;;;;;;;9.75;9.25;;;;;;;;5092545;27;50459;-63
2021/11/08 12:44:32;;;;;;;;;7.25;7.25;;;;;;;;5093293;27;49938;-62
2021/11/08 12:46:58;;;;;;;;;8.75;7.50;;;;;;;;5092648;27;49731;-62
2021/11/08 12:49:42;;;;;;;;;7.25;6.50;;;;;;;;5092698;27;49653;-62
2021/11/08 12:52:07;;;;;;;;;5.00;4.25;;;;;;;;5091276;27;50565;-63
2021/11/08 12:54:46;;;;;;;;;4.00;2.75;;;;;;;;5092397;27;49832;-65
2021/11/08 12:57:11;;;;;;;;;4.75;3.00;;;;;;;;5093215;27;49938;-63
2021/11/08 12:59:44;;;;;;;;;4.00;4.00;;;;;;;;5092552;27;49612;-62
2021/11/08 13:02:17;;;;;;;;;5.25;4.00;;;;;;;;5092249;27;49696;-62
2021/11/08 13:04:43;;;;;;;;;10.00;7.00;;;;;;;;5092058;27;49669;-62
2021/11/08 13:07:10;;;;;;;;;3.00;3.00;;;;;;;;5092574;27;49796;-64
2021/11/08 13:09:37;;;;;;;;;4.50;4.25;;;;;;;;5091124;27;49807;-62
2021/11/08 13:12:10;;;;;;;;;4.25;4.25;;;;;;;;5090729;27;49877;-62
2021/11/08 13:14:35;;;;;;;;;6.00;4.25;;;;;;;;5090896;27;49733;-62
2021/11/08 13:17:06;;;;;;;;;5.00;4.00;;;;;;;;5092164;27;49913;-63
2021/11/08 13:19:31;;;;;;;;;7.75;4.00;;;;;;;;5092295;27;49834;-63
2021/11/08 13:21:57;;;;;;;;;5.75;3.50;;;;;;;;5092351;27;49746;-63
2021/11/08 13:24:24;;;;;;;;;2.50;2.50;;;;;;;;5090038;27;49767;-63
2021/11/08 13:26:49;;;;;;;;;5.25;4.25;;;;;;;;5092018;27;49770;-64
2021/11/08 13:29:15;;;;;;;;;6.00;4.00;;;;;;;;5092124;27;49645;-69
2021/11/08 13:31:40;;;;;;;;;7.00;5.00;;;;;;;;5090567;27;50311;-65
2021/11/08 13:34:06;;;;;;;;;7.50;3.75;;;;;;;;5091828;27;49652;-63
2021/11/08 13:36:31;;;;;;;;;5.75;2.50;;;;;;;;5090071;27;49867;-70
2021/11/08 13:38:58;;;;;;;;;5.25;4.00;;;;;;;;5092424;27;49764;-67
2021/11/08 13:41:24;;;;;;;;;2.00;2.00;;;;;;;;5091499;27;50956;-63
2021/11/08 13:43:50;;;;;;;;;2.75;2.75;;;;;;;;5091636;27;49663;-66
2021/11/08 13:46:16;;;;;;;;;4.75;3.25;;;;;;;;5092237;27;49929;-69
2021/11/08 13:48:46;;;;;;;;;3.75;2.50;;;;;;;;5091773;27;49858;-62
2021/11/08 13:51:32;;;;;;;;;3.50;2.50;;;;;;;;5091361;27;50411;-62
2021/11/08 13:54:02;;;;;;;;;3.50;3.50;;;;;;;;5087213;27;49194;-63
2021/11/08 13:56:28;;;;;;;;;6.25;4.00;;;;;;;;5091729;27;49748;-62
2021/11/08 13:58:54;;;;;;;;;7.25;4.50;;;;;;;;5091610;27;49763;-62
2021/11/08 14:01:22;;;;;;;;;9.00;4.25;;;;;;;;5089772;27;49834;-62
2021/11/08 14:03:49;;;;;;;;;4.50;3.25;;;;;;;;5090071;27;49770;-63
2021/11/08 14:06:19;;;;;;;;;3.25;3.25;;;;;;;;5091373;27;49589;-63
2021/11/08 14:08:45;;;;;;;;;5.25;5.00;;;;;;;;5073299;27;49759;-63
2021/11/08 14:11:10;;;;;;;;;5.50;3.00;;;;;;;;5091194;27;49833;-63
2021/11/08 14:13:40;;;;;;;;;3.75;3.75;;;;;;;;5091117;27;49766;-64
2021/11/08 14:16:06;;;;;;;;;2.00;2.00;;;;;;;;5091283;27;49759;-63
2021/11/08 14:18:31;;;;;;;;;5.75;3.25;;;;;;;;5091404;27;49555;-63
2021/11/08 14:21:06;;;;;;;;;5.25;3.50;;;;;;;;5090393;27;60365;-63
2021/11/08 14:23:32;;;;;;;;;3.75;3.50;;;;;;;;5091317;27;50228;-63
2021/11/08 14:26:06;;;;;;;;;4.00;3.00;;;;;;;;5091222;27;49728;-63
2021/11/08 14:28:31;;;;;;;;;5.50;5.50;;;;;;;;5091904;27;49861;-63
2021/11/08 14:30:56;;;;;;;;;4.25;4.25;;;;;;;;5089524;27;56525;-63
2021/11/08 14:33:22;;;;;;;;;4.50;3.50;;;;;;;;5089364;27;62196;-65
2021/11/08 14:35:47;;;;;;;;;8.25;3.50;;;;;;;;5091680;27;49740;-63
2021/11/08 14:38:21;;;;;;;;;4.25;3.00;;;;;;;;5094505;27;50307;-63
2021/11/08 14:40:47;;;;;;;;;8.50;4.50;;;;;;;;5094484;27;50326;-64
2021/11/08 14:43:15;;;;;;;;;3.25;2.75;;;;;;;;5094716;27;49666;-65
2021/11/08 14:45:41;;;;;;;;;3.25;3.25;;;;;;;;5094750;27;49566;-63
2021/11/08 14:48:07;;;;;;;;;8.50;7.00;;;;;;;;5093328;27;50028;-63
2021/11/08 14:50:34;;;;;;;;;2.50;1.25;;;;;;;;5094253;27;50486;-63
2021/11/08 14:53:00;;;;;;;;;8.00;4.00;;;;;;;;5094472;27;49845;-63
2021/11/08 14:55:26;;;;;;;;;6.25;3.00;;;;;;;;5093144;27;49671;-62
2021/11/08 14:57:52;;;;;;;;;8.00;4.75;;;;;;;;5095038;27;49914;-63
2021/11/08 15:00:18;;;;;;;;;4.00;3.00;;;;;;;;5093975;27;50317;-63
2021/11/08 15:02:44;;;;;;;;;6.75;5.00;;;;;;;;5094628;27;49930;-63
2021/11/08 15:05:13;;;;;;;;;4.00;4.00;;;;;;;;5093985;27;49775;-63
2021/11/08 15:07:39;;;;;;;;;3.50;3.00;;;;;;;;5094392;27;49841;-62
2021/11/08 15:10:06;;;;;;;;;9.00;5.00;;;;;;;;5094060;27;49827;-62
2021/11/08 15:12:32;;;;;;;;;2.00;1.50;;;;;;;;5093932;27;49704;-64
2021/11/08 15:15:00;;;;;;;;;6.00;4.00;;;;;;;;5094169;27;49697;-63
2021/11/08 15:17:29;;;;;;;;;2.50;2.50;;;;;;;;5094434;27;49898;-63
2021/11/08 15:20:01;;;;;;;;;9.75;4.75;;;;;;;;5074804;27;51611;-64
2021/11/08 15:22:29;;;;;;;;;5.00;3.75;;;;;;;;5093832;27;49886;-72
2021/11/08 15:24:54;;;;;;;;;4.75;3.25;;;;;;;;5092637;27;49773;-67
2021/11/08 15:27:28;;;;;;;;;4.50;4.00;;;;;;;;5094033;27;49641;-70
2021/11/08 15:30:01;;;;;;;;;4.75;3.50;;;;;;;;5092795;27;50986;-63
2021/11/08 15:32:26;;;;;;;;;8.00;6.00;;;;;;;;5093692;27;49642;-66
2021/11/08 15:34:51;;;;;;;;;10.25;8.00;;;;;;;;5092131;27;49730;-71
2021/11/08 15:37:20;;;;;;;;;7.50;5.50;;;;;;;;5093353;27;56807;-66
2021/11/08 15:39:46;;;;;;;;;4.75;4.75;;;;;;;;5093487;27;49699;-64
2021/11/08 15:42:11;;;;;;;;;7.75;7.50;;;;;;;;5093523;27;49679;-67
2021/11/08 15:44:36;;;;;;;;;12.00;5.50;;;;;;;;5093783;27;49711;-63
2021/11/08 15:47:02;;;;;;;;;9.25;5.50;;;;;;;;5093539;27;49706;-66
2021/11/08 15:49:28;;;;;;;;;9.25;5.00;;;;;;;;5093088;27;50279;-65
2021/11/08 15:51:54;;;;;;;;;5.75;5.75;;;;;;;;5093382;27;49681;-64
2021/11/08 15:54:22;;;;;;;;;9.25;6.50;;;;;;;;5075184;27;49796;-65
2021/11/08 15:56:47;;;;;;;;;8.00;8.00;;;;;;;;5093900;27;49874;-68
2021/11/08 15:59:13;;;;;;;;;12.00;7.75;;;;;;;;5093384;27;49881;-63
2021/11/08 16:01:39;;;;;;;;;6.25;6.25;;;;;;;;5093319;27;49827;-68
2021/11/08 16:04:04;;;;;;;;;7.75;5.00;;;;;;;;5092110;27;49690;-67
2021/11/08 16:06:29;;;;;;;;;8.25;7.25;;;;;;;;5092111;27;49854;-63